createdAt,value
2017-12-01T00:01:50.466Z,16.23
2017-12-01T00:04:18.642Z,21.20
2017-12-01T00:06:46.813Z,22.30
2017-12-01T00:09:16.133Z,23.43
2017-12-01T00:11:44.261Z,25.60
2017-12-01T00:14:12.412Z,22.17
2017-12-01T00:16:40.573Z,24.27
2017-12-01T00:19:08.716Z,22.23
2017-12-01T00:21:37.634Z,23.10
2017-12-01T01:00:37.982Z,18.63
2017-12-01T01:18:07.089Z,26.43
2017-12-01T01:20:36.132Z,22.63
2017-12-01T01:23:04.393Z,21.07
2017-12-01T01:38:28.558Z,23.47
2017-12-01T02:17:33.533Z,17.83
2017-12-01T02:20:01.674Z,19.83
2017-12-01T02:22:29.808Z,20.67
2017-12-01T02:24:57.957Z,21.73
2017-12-01T02:27:26.117Z,19.93
2017-12-01T02:29:55.027Z,22.07
2017-12-01T02:32:23.928Z,20.43
2017-12-01T02:34:52.927Z,24.10
2017-12-01T02:37:21.072Z,20.37
2017-12-01T02:39:49.224Z,22.10
2017-12-01T02:42:17.351Z,18.97
2017-12-01T02:44:45.497Z,17.87
2017-12-01T02:47:13.616Z,18.73
2017-12-01T02:49:41.836Z,19.53
2017-12-01T02:52:09.960Z,17.70
2017-12-01T02:54:38.962Z,15.77
2017-12-01T02:57:07.132Z,16.10
2017-12-01T02:59:36.049Z,16.23
2017-12-01T03:02:04.184Z,13.73
2017-12-01T03:04:32.313Z,15.27
2017-12-01T03:07:01.232Z,16.70
2017-12-01T03:09:29.349Z,17.00
2017-12-01T03:11:57.502Z,18.60
2017-12-01T03:14:25.636Z,18.10
2017-12-01T03:16:53.786Z,16.70
2017-12-01T03:19:22.700Z,15.50
2017-12-01T03:21:50.848Z,14.53
2017-12-01T03:24:18.980Z,14.90
2017-12-01T03:26:48.091Z,15.20
2017-12-01T03:29:16.210Z,16.10
2017-12-01T03:31:44.378Z,14.40
2017-12-01T03:34:12.555Z,16.27
2017-12-01T03:36:41.864Z,18.07
2017-12-01T03:39:09.981Z,15.83
2017-12-01T03:41:38.154Z,15.30
2017-12-01T03:44:06.289Z,18.00
2017-12-01T03:46:34.497Z,20.00
2017-12-01T03:49:02.637Z,16.80
2017-12-01T03:51:31.605Z,14.70
2017-12-01T03:53:59.757Z,22.40
2017-12-01T03:56:28.843Z,16.87
2017-12-01T03:58:57.752Z,18.10
2017-12-01T04:01:25.906Z,19.00
2017-12-01T04:03:54.078Z,20.10
2017-12-01T04:06:22.199Z,19.40
2017-12-01T04:08:50.399Z,18.20
2017-12-01T04:11:18.515Z,19.17
2017-12-01T04:13:46.726Z,22.00
2017-12-01T04:16:14.867Z,22.67
2017-12-01T04:18:43.009Z,21.20
2017-12-01T04:21:11.135Z,21.90
2017-12-01T04:23:39.286Z,21.97
2017-12-01T04:26:07.456Z,22.93
2017-12-01T04:28:35.626Z,23.87
2017-12-01T04:31:03.749Z,25.57
2017-12-01T04:33:31.885Z,21.40
2017-12-01T04:36:00.049Z,27.40
2017-12-01T04:38:28.948Z,22.87
2017-12-01T04:40:57.851Z,23.83
2017-12-01T04:43:25.994Z,23.27
2017-12-01T04:45:54.132Z,22.13
2017-12-01T04:48:22.300Z,21.47
2017-12-01T04:50:50.485Z,23.63
2017-12-01T04:53:18.633Z,20.73
2017-12-01T04:55:47.552Z,30.13
2017-12-01T04:58:16.602Z,22.80
2017-12-01T05:00:44.803Z,25.10
2017-12-01T05:03:12.961Z,24.77
2017-12-01T05:05:41.877Z,29.47
2017-12-01T05:08:10.030Z,26.93
2017-12-01T05:10:39.686Z,28.83
2017-12-01T05:13:07.826Z,26.83
2017-12-01T05:15:36.873Z,36.50
2017-12-01T05:18:05.924Z,31.90
2017-12-01T05:20:34.088Z,26.83
2017-12-01T05:23:02.245Z,23.70
2017-12-01T05:25:30.393Z,25.20
2017-12-01T05:27:59.306Z,21.90
2017-12-01T05:30:27.482Z,21.90
2017-12-01T05:32:56.440Z,23.93
2017-12-01T05:35:24.588Z,24.13
2017-12-01T05:37:52.720Z,26.70
2017-12-01T05:40:20.876Z,27.10
2017-12-01T05:42:49.900Z,28.53
2017-12-01T05:45:18.061Z,27.87
2017-12-01T05:47:47.027Z,28.30
2017-12-01T05:50:15.147Z,28.03
2017-12-01T05:52:43.332Z,28.63
2017-12-01T05:55:11.513Z,24.07
2017-12-01T05:57:39.701Z,26.40
2017-12-01T06:00:07.877Z,25.57
2017-12-01T06:02:36.036Z,26.37
2017-12-01T06:05:04.237Z,26.90
2017-12-01T06:07:32.392Z,27.33
2017-12-01T06:10:00.528Z,26.07
2017-12-01T06:12:28.684Z,29.43
2017-12-01T06:14:56.823Z,31.70
2017-12-01T06:17:24.963Z,30.03
2017-12-01T06:19:53.124Z,32.77
2017-12-01T06:22:21.264Z,28.43
2017-12-01T06:24:49.468Z,33.60
2017-12-01T06:27:17.602Z,32.63
2017-12-01T06:29:45.776Z,31.20
2017-12-01T06:32:13.975Z,31.17
2017-12-01T06:34:42.107Z,33.23
2017-12-01T06:37:10.300Z,32.73
2017-12-01T06:39:38.512Z,28.20
2017-12-01T06:42:06.687Z,34.10
2017-12-01T06:44:36.468Z,32.80
2017-12-01T06:47:04.602Z,33.47
2017-12-01T06:49:32.809Z,28.30
2017-12-01T06:52:00.956Z,36.67
2017-12-01T06:54:29.099Z,35.37
2017-12-01T06:56:58.001Z,37.53
2017-12-01T06:59:26.988Z,40.63
2017-12-01T07:01:55.888Z,31.90
2017-12-01T07:04:24.072Z,36.87
2017-12-01T07:06:52.218Z,33.80
2017-12-01T07:09:20.371Z,36.10
2017-12-01T07:11:49.270Z,37.00
2017-12-01T07:14:18.326Z,35.90
2017-12-01T07:16:47.299Z,34.10
2017-12-01T07:19:15.425Z,35.63
2017-12-01T07:21:44.392Z,34.10
2017-12-01T07:24:12.551Z,36.17
2017-12-01T07:26:52.605Z,33.00
2017-12-01T07:29:20.810Z,36.73
2017-12-01T07:31:49.801Z,39.00
2017-12-01T07:34:17.953Z,35.90
2017-12-01T07:36:46.126Z,40.30
2017-12-01T07:39:14.275Z,40.83
2017-12-01T07:41:42.404Z,48.17
2017-12-01T07:44:23.409Z,44.37
2017-12-01T07:46:51.582Z,39.10
2017-12-01T07:49:19.721Z,45.53
2017-12-01T07:51:49.456Z,51.57
2017-12-01T07:54:17.613Z,41.60
2017-12-01T07:56:46.554Z,43.10
2017-12-01T07:59:15.273Z,36.47
2017-12-01T08:01:43.453Z,33.50
2017-12-01T08:04:12.369Z,30.50
2017-12-01T08:06:40.554Z,29.00
2017-12-01T08:09:08.677Z,20.63
2017-12-01T08:11:37.637Z,19.87
2017-12-01T08:14:05.784Z,21.53
2017-12-01T08:16:45.668Z,26.17
2017-12-01T08:19:13.825Z,27.83
2017-12-01T08:21:53.839Z,30.23
2017-12-01T08:24:33.672Z,28.03
2017-12-01T08:27:01.807Z,25.57
2017-12-01T08:29:29.963Z,21.17
2017-12-01T08:31:58.100Z,22.93
2017-12-01T08:34:26.248Z,30.60
2017-12-01T08:36:55.687Z,35.10
2017-12-01T08:39:23.831Z,45.57
2017-12-01T08:41:52.822Z,31.50
2017-12-01T08:44:20.959Z,25.20
2017-12-01T08:46:49.889Z,36.97
2017-12-01T08:49:18.033Z,27.60
2017-12-01T08:51:46.161Z,23.53
2017-12-01T08:54:15.122Z,14.53
2017-12-01T08:56:44.004Z,16.00
2017-12-01T08:59:12.201Z,14.33
2017-12-01T09:01:40.360Z,17.33
2017-12-01T09:04:08.545Z,20.90
2017-12-01T09:06:36.752Z,20.30
2017-12-01T09:09:05.338Z,25.97
2017-12-01T09:11:33.476Z,25.67
2017-12-01T09:14:01.605Z,32.47
2017-12-01T09:16:29.757Z,33.17
2017-12-01T09:18:57.883Z,30.00
2017-12-01T09:21:26.192Z,25.57
2017-12-01T09:23:54.350Z,26.97
2017-12-01T09:26:22.491Z,27.33
2017-12-01T09:28:50.631Z,34.80
2017-12-01T09:31:19.056Z,24.03
2017-12-01T09:33:47.188Z,23.40
2017-12-01T09:36:15.337Z,26.13
2017-12-01T09:38:43.470Z,30.43
2017-12-01T09:41:11.636Z,27.73
2017-12-01T09:43:40.545Z,23.13
2017-12-01T09:46:08.677Z,27.80
2017-12-01T09:48:37.792Z,25.27
2017-12-01T09:51:05.942Z,23.30
2017-12-01T09:53:34.867Z,20.87
2017-12-01T09:56:03.042Z,20.27
2017-12-01T09:58:31.201Z,17.40
2017-12-01T10:00:59.374Z,19.73
2017-12-01T10:03:27.524Z,22.23
2017-12-01T10:05:55.655Z,25.27
2017-12-01T10:08:24.559Z,22.53
2017-12-01T10:10:52.750Z,27.80
2017-12-01T10:13:20.882Z,21.47
2017-12-01T10:15:49.027Z,19.80
2017-12-01T10:18:17.176Z,18.77
2017-12-01T10:20:46.969Z,22.53
2017-12-01T10:23:15.115Z,21.00
2017-12-01T10:25:43.277Z,17.83
2017-12-01T10:28:11.481Z,13.60
2017-12-01T10:30:40.385Z,13.60
2017-12-01T10:33:09.762Z,25.90
2017-12-01T10:35:38.700Z,30.53
2017-12-01T11:31:40.338Z,19.60
2017-12-01T11:34:14.272Z,19.40
2017-12-01T11:36:48.137Z,21.60
2017-12-01T11:39:21.859Z,15.80
2017-12-01T11:41:55.504Z,21.30
2017-12-01T11:44:29.519Z,17.80
2017-12-01T11:46:57.690Z,17.73
2017-12-01T11:49:25.881Z,15.60
2017-12-01T11:51:54.129Z,17.00
2017-12-01T11:54:22.252Z,14.70
2017-12-01T11:56:50.420Z,19.83
2017-12-01T11:59:18.611Z,17.20
2017-12-01T12:01:47.698Z,16.20
2017-12-01T12:04:16.727Z,22.03
2017-12-01T12:06:44.956Z,14.50
2017-12-01T12:09:14.877Z,16.03
2017-12-01T12:11:43.813Z,12.97
2017-12-01T12:14:12.276Z,14.23
2017-12-01T12:16:40.487Z,11.90
2017-12-01T12:19:08.674Z,10.83
2017-12-01T12:21:36.899Z,10.10
2017-12-01T12:24:05.422Z,10.10
2017-12-01T12:26:33.565Z,9.73
2017-12-01T12:29:01.724Z,12.27
2017-12-01T12:31:29.935Z,11.40
2017-12-01T12:33:59.611Z,14.10
2017-12-01T12:36:30.398Z,16.73
2017-12-01T12:38:59.330Z,13.10
2017-12-01T12:41:28.355Z,13.50
2017-12-01T12:43:56.519Z,13.40
2017-12-01T12:49:25.417Z,22.13
2017-12-01T12:51:53.661Z,16.87
2017-12-01T12:54:22.574Z,16.00
2017-12-01T12:56:50.728Z,13.40
2017-12-01T12:59:18.968Z,16.20
2017-12-01T13:01:47.110Z,16.50
2017-12-01T13:04:15.263Z,16.50
2017-12-01T13:06:43.416Z,14.80
2017-12-01T13:09:11.656Z,16.80
2017-12-01T13:11:39.841Z,13.60
2017-12-01T13:14:08.699Z,11.60
2017-12-01T13:16:36.897Z,10.00
2017-12-01T13:19:05.047Z,11.93
2017-12-01T13:21:52.928Z,11.00
2017-12-01T13:30:23.996Z,9.43
2017-12-01T13:33:01.566Z,13.07
2017-12-01T13:35:31.339Z,22.57
2017-12-01T13:38:11.496Z,20.57
2017-12-01T13:40:52.656Z,19.20
2017-12-01T13:43:31.278Z,19.37
2017-12-01T13:46:16.212Z,17.20
2017-12-01T13:48:48.456Z,18.13
2017-12-01T13:51:19.955Z,18.20
2017-12-01T13:57:12.089Z,20.50
2017-12-01T13:59:43.489Z,17.50
2017-12-01T14:02:14.673Z,23.17
2017-12-01T14:04:43.137Z,27.63
2017-12-01T14:07:32.165Z,23.83
2017-12-01T14:13:02.699Z,35.03
2017-12-01T14:15:33.799Z,33.87
2017-12-01T14:18:08.672Z,31.20
2017-12-01T14:20:38.778Z,38.63
2017-12-01T14:23:07.276Z,33.73
2017-12-01T14:25:35.852Z,38.73
2017-12-01T14:28:04.811Z,31.77
2017-12-01T14:30:35.643Z,25.07
2017-12-01T14:33:06.106Z,25.13
2017-12-01T14:35:35.234Z,26.23
2017-12-01T14:41:17.098Z,37.60
2017-12-01T14:43:47.774Z,27.97
2017-12-01T14:46:23.942Z,40.90
2017-12-01T14:48:52.786Z,40.57
2017-12-01T14:51:23.465Z,34.40
2017-12-01T14:53:51.912Z,33.80
2017-12-01T14:56:21.059Z,31.57
2017-12-01T14:58:51.637Z,37.40
2017-12-01T15:01:20.785Z,29.10
2017-12-01T15:03:52.540Z,26.17
2017-12-01T15:06:23.635Z,29.23
2017-12-01T15:08:53.803Z,26.17
2017-12-01T15:11:26.050Z,24.00
2017-12-01T15:13:57.273Z,25.53
2017-12-01T15:16:34.496Z,24.10
2017-12-01T15:19:26.294Z,23.37
2017-12-01T15:21:55.362Z,29.87
2017-12-01T15:24:25.452Z,27.07
2017-12-01T15:26:53.720Z,23.67
2017-12-01T15:29:22.549Z,27.47
2017-12-01T15:31:50.781Z,31.83
2017-12-01T15:34:19.068Z,31.60
2017-12-01T15:36:48.113Z,33.87
2017-12-01T15:39:16.444Z,29.87
2017-12-01T15:41:44.689Z,25.80
2017-12-01T15:44:13.728Z,29.97
2017-12-01T15:55:43.832Z,23.03
2017-12-01T15:58:13.008Z,26.40
2017-12-01T16:00:41.308Z,27.47
2017-12-01T16:03:10.347Z,30.23
2017-12-01T16:08:40.201Z,40.47
2017-12-01T16:11:08.591Z,31.63
2017-12-01T16:13:36.890Z,29.70
2017-12-01T16:19:16.314Z,30.10
2017-12-01T16:21:45.592Z,30.57
2017-12-01T16:24:13.892Z,30.07
2017-12-01T16:26:44.435Z,30.33
2017-12-01T16:33:08.495Z,37.73
2017-12-01T16:35:37.978Z,33.87
2017-12-01T16:38:06.306Z,35.03
2017-12-01T16:40:35.216Z,38.77
2017-12-01T16:43:04.433Z,33.00
2017-12-01T16:45:33.437Z,32.50
2017-12-01T16:48:02.591Z,36.57
2017-12-01T16:50:30.926Z,38.47
2017-12-01T16:53:00.669Z,38.50
2017-12-01T16:55:28.956Z,38.93
2017-12-01T17:00:52.944Z,36.67
2017-12-01T17:03:21.182Z,37.47
2017-12-01T17:05:49.525Z,54.37
2017-12-01T17:08:22.013Z,41.73
2017-12-01T17:10:52.195Z,37.10
2017-12-01T17:13:22.332Z,54.37
2017-12-01T17:15:55.473Z,64.17
2017-12-01T17:18:23.714Z,47.90
2017-12-01T17:20:54.346Z,48.60
2017-12-01T17:26:09.812Z,40.57
2017-12-01T17:28:40.552Z,46.93
2017-12-01T17:31:16.722Z,41.50
2017-12-01T17:33:45.645Z,35.10
2017-12-01T17:36:20.639Z,37.43
2017-12-01T17:38:50.039Z,36.73
2017-12-01T17:41:20.658Z,34.00
2017-12-01T17:43:53.495Z,41.40
2017-12-01T17:46:23.637Z,33.37
2017-12-01T17:48:56.725Z,35.70
2017-12-01T17:51:28.836Z,39.73
2017-12-01T17:54:02.880Z,36.40
2017-12-01T17:56:31.835Z,36.20
2017-12-01T18:01:37.766Z,38.47
2017-12-01T18:04:13.617Z,33.80
2017-12-01T18:06:43.377Z,39.57
2017-12-01T18:09:13.623Z,34.60
2017-12-01T18:11:42.699Z,38.10
2017-12-01T18:14:12.129Z,36.97
2017-12-01T18:16:42.298Z,39.53
2017-12-01T18:19:12.206Z,39.23
2017-12-01T18:21:44.452Z,39.43
2017-12-01T18:24:15.662Z,36.67
2017-12-01T18:29:57.642Z,53.77
2017-12-01T18:36:09.977Z,48.17
2017-12-01T18:38:38.426Z,50.30
2017-12-01T18:41:08.959Z,52.77
2017-12-01T18:43:38.557Z,51.60
2017-12-01T18:46:08.838Z,51.20
2017-12-01T18:48:38.521Z,41.83
2017-12-01T18:51:09.106Z,46.30
2017-12-01T18:53:39.028Z,40.20
2017-12-01T18:56:10.433Z,43.63
2017-12-01T18:58:42.547Z,38.77
2017-12-01T19:01:14.765Z,41.07
2017-12-01T19:03:46.571Z,35.77
2017-12-01T19:06:15.696Z,39.00
2017-12-01T19:08:47.634Z,49.20
2017-12-01T19:11:19.822Z,60.60
2017-12-01T19:13:51.555Z,62.97
2017-12-01T19:16:21.610Z,55.37
2017-12-01T19:18:50.554Z,54.40
2017-12-01T19:21:19.260Z,51.37
2017-12-01T19:24:10.195Z,51.20
2017-12-01T19:26:40.363Z,55.67
2017-12-01T19:29:09.088Z,56.60
2017-12-01T19:31:40.051Z,56.87
2017-12-01T19:34:16.342Z,56.50
2017-12-01T19:36:45.511Z,56.33
2017-12-01T19:39:14.888Z,59.70
2017-12-01T19:44:36.340Z,62.63
2017-12-01T19:52:31.403Z,68.43
2017-12-01T19:55:07.998Z,48.27
2017-12-01T20:00:23.360Z,45.13
2017-12-01T20:02:52.374Z,39.17
2017-12-01T20:05:21.584Z,41.37
2017-12-01T20:07:50.137Z,49.47
2017-12-01T20:10:20.038Z,44.53
2017-12-01T20:12:52.742Z,58.37
2017-12-01T20:15:27.830Z,65.97
2017-12-01T20:18:21.274Z,60.90
2017-12-01T20:20:52.982Z,57.93
2017-12-01T20:23:21.811Z,59.37
2017-12-01T20:25:51.225Z,51.43
2017-12-01T20:31:06.892Z,46.67
2017-12-01T20:33:37.762Z,65.50
2017-12-01T20:36:07.926Z,95.23
2017-12-01T20:38:40.260Z,72.80
2017-12-01T20:41:18.236Z,69.20
2017-12-01T20:43:48.716Z,97.23
2017-12-01T20:46:18.948Z,66.20
2017-12-01T20:48:47.442Z,68.97
2017-12-01T20:51:17.680Z,86.53
2017-12-01T20:53:49.746Z,64.73
2017-12-01T20:56:19.997Z,54.00
2017-12-01T20:58:49.146Z,51.20
2017-12-01T21:01:20.356Z,49.03
2017-12-01T21:03:49.546Z,47.80
2017-12-01T21:06:19.824Z,53.73
2017-12-01T21:20:13.976Z,54.20
2017-12-01T22:16:26.891Z,48.77
2017-12-01T22:19:06.106Z,42.70
2017-12-01T22:28:14.634Z,43.30
2017-12-01T22:31:00.273Z,40.20
2017-12-01T22:33:40.819Z,44.80
2017-12-01T22:55:29.082Z,38.10
2017-12-01T23:38:08.564Z,43.83
2017-12-01T23:40:37.945Z,41.60
2017-12-01T23:43:11.374Z,46.97
2017-12-01T23:45:40.053Z,50.67
2017-12-01T23:48:09.565Z,51.77
2017-12-01T23:50:38.749Z,54.10
2017-12-01T23:53:08.385Z,48.70
2017-12-01T23:58:16.067Z,52.87
